Impacts METAR Board
IDs:

KMIA - Miami Intl, FL, US

Updated at: 2100 UTC 24 Apr 2018
Potential Impact None Slight Moderate High
Time 24/09Z 24/10Z 24/11Z 24/12Z 24/13Z 24/14Z 24/15Z 24/16Z 24/17Z 24/18Z 24/19Z 24/20Z 24/21Z
Temp73 73 73 75 78 80 83 86 87 85 88 88 89
Dewpt73 73 73 74 74 73 72 71 67 71 70 69 65
Altim29.97 29.97 29.98 30.00 30.00 30.01 30.00 30.00 29.98 29.95 29.92 29.89 29.88
VIS10 10 10 10 10 10 10 10 10 10 10 10 10
CIG-- -- -- -- -- -- 250 46 80 55 -- 90 --
CoverFEWFEWFEWFEWFEWSCTBKNBKNBKNBKNSCTBKNSCT
FltCatVFRVFRVFRVFRVFRVFRVFRVFRVFRVFRVFRVFRVFR
WX--------------------------
WDir00210230230230210290200160180160240
WSpd0 0 3 4 6 8 7 5 5 8 8 8 14
WGst-- -- -- -- -- -- -- -- -- -- -- -- 20
Raw hourly METARs
KMIA 240853Z 00000KT 10SM FEW015 23/23 A2997 RMK AO2 SLP147 T02280228 55004 $
KMIA 240953Z 00000KT 10SM FEW015 23/23 A2997 RMK AO2 SLP147 T02280228 $
KMIA 241053Z 21003KT 10SM FEW015 23/23 A2998 RMK AO2 SLP151 T02280228 $
KMIA 241153Z 23004KT 10SM FEW015 FEW250 24/23 A3000 RMK AO2 SLP157 70131 T02390233 10239 20228 53010 $
KMIA 241253Z 23006KT 10SM FEW015 FEW250 26/23 A3000 RMK AO2 SLP160 T02560233
KMIA 241353Z 23008KT 10SM SCT016 SCT250 27/23 A3001 RMK AO2 SLP161 T02670228
KMIA 241453Z 21007KT 180V240 10SM SCT026 BKN250 28/22 A3000 RMK AO2 SLP160 T02830222 51000
KMIA 241553Z 29005KT 10SM SCT032 BKN046 BKN250 30/22 A3000 RMK AO2 SLP158 T03000217
KMIA 241653Z 20005KT 10SM SCT048 BKN080 BKN250 31/19 A2998 RMK AO2 SLP150 T03060194
KMIA 241753Z 16008KT 10SM SCT038TCU BKN055 BKN250 29/22 A2995 RMK AO2 SLP142 TCU OHD-S-SW T02940217 10311 20239 58018
KMIA 241853Z COR 18008KT 10SM SCT045 SCT070 31/21 A2992 RMK SLP131 T03110211
KMIA 241953Z 16008KT 10SM FEW044 SCT075 BKN090 BKN250 31/21 A2989 RMK AO2 SLP123 T03110206 $
KMIA 242053Z COR 24014G20KT 10SM FEW055 SCT090 SCT250 32/18 A2988 RMK AO2 SLP120 CB DSNT N T03170183 56030 $



Page loaded:  21:06 UTC  |   02:06 PM Pacific  |   03:06 PM Mountain  |   04:06 PM Central  |   05:06 PM Eastern

 

ADVISORIES

FORECASTS

FORECASTS

OBSERVATIONS

USER TOOLS

ABOUT US